createdAt,value
2023-04-29T00:02:19.271Z,98206.16
2023-04-29T00:04:52.946Z,98203.51
2023-04-29T00:07:25.317Z,98198.90
2023-04-29T00:09:57.407Z,98196.66
2023-04-29T00:12:30.419Z,98194.15
2023-04-29T00:15:04.795Z,98192.11
2023-04-29T00:17:37.445Z,98186.84
2023-04-29T00:20:12.956Z,98183.09
2023-04-29T00:22:47.884Z,98182.37
2023-04-29T00:25:20.738Z,98176.53
2023-04-29T00:27:52.865Z,98173.53
2023-04-29T00:30:25.033Z,98175.98
2023-04-29T00:32:57.529Z,98175.27
2023-04-29T00:35:29.880Z,98168.28
2023-04-29T00:38:02.539Z,98169.30
2023-04-29T00:40:36.075Z,98170.09
2023-04-29T00:43:08.243Z,98163.27
2023-04-29T00:45:40.580Z,98160.27
2023-04-29T00:48:13.016Z,98160.00
2023-04-29T00:50:45.573Z,98159.88
2023-04-29T00:53:18.342Z,98158.25
2023-04-29T00:55:52.127Z,98153.55
2023-04-29T00:58:30.696Z,98151.31
2023-04-29T01:01:03.899Z,98155.23
2023-04-29T01:03:37.198Z,98153.14
2023-04-29T01:06:17.891Z,98152.67
2023-04-29T01:09:05.226Z,98148.33
2023-04-29T01:11:50.831Z,98149.48
2023-04-29T01:14:24.536Z,98148.59
2023-04-29T01:17:02.213Z,98147.10
2023-04-29T01:19:41.594Z,98141.30
2023-04-29T01:22:17.949Z,98143.23
2023-04-29T01:24:53.087Z,98135.52
2023-04-29T01:27:34.798Z,98133.25
2023-04-29T01:30:18.969Z,98132.61
2023-04-29T01:32:59.486Z,98130.95
2023-04-29T01:35:56.277Z,98128.88
2023-04-29T01:38:35.554Z,98122.61
2023-04-29T01:41:16.069Z,98119.11
2023-04-29T01:43:53.441Z,98117.64
2023-04-29T01:46:29.220Z,98116.81
2023-04-29T01:49:03.787Z,98115.91
2023-04-29T01:51:36.025Z,98109.70
2023-04-29T01:54:08.805Z,98102.29
2023-04-29T01:56:41.354Z,98096.83
2023-04-29T01:59:25.125Z,98085.44
2023-04-29T02:02:21.480Z,98078.41
2023-04-29T02:05:01.615Z,98072.17
2023-04-29T02:07:34.275Z,98065.71
2023-04-29T02:10:07.284Z,98061.39
2023-04-29T02:12:40.603Z,98059.35
2023-04-29T02:15:13.742Z,98051.96
2023-04-29T02:17:46.790Z,98050.66
2023-04-29T02:20:19.417Z,98044.77
2023-04-29T02:22:52.484Z,98049.33
2023-04-29T02:25:25.904Z,98048.61
2023-04-29T02:27:58.535Z,98044.89
2023-04-29T02:30:31.069Z,98044.06
2023-04-29T02:33:04.104Z,98042.05
2023-04-29T02:35:37.331Z,98041.05
2023-04-29T02:38:09.508Z,98039.15
2023-04-29T02:40:45.913Z,98032.68
2023-04-29T02:43:17.995Z,98033.46
2023-04-29T02:45:50.580Z,98033.08
2023-04-29T02:48:22.771Z,98034.09
2023-04-29T02:50:55.381Z,98037.58
2023-04-29T02:53:28.728Z,98040.48
2023-04-29T02:56:00.971Z,98037.61
2023-04-29T02:58:33.190Z,98033.30
2023-04-29T03:01:06.002Z,98036.80
2023-04-29T03:03:38.513Z,98033.29
2023-04-29T03:06:10.888Z,98032.92
2023-04-29T03:08:43.337Z,98024.18
2023-04-29T03:11:15.442Z,98026.21
2023-04-29T03:13:47.588Z,98024.47
2023-04-29T03:16:19.749Z,98014.38
2023-04-29T03:18:53.230Z,98010.48
2023-04-29T03:21:27.854Z,98013.87
2023-04-29T03:24:00.323Z,98012.06
2023-04-29T03:26:37.958Z,98014.10
2023-04-29T03:29:10.827Z,98018.69
2023-04-29T03:31:43.009Z,98021.38
2023-04-29T03:34:15.499Z,98016.14
2023-04-29T03:36:51.353Z,98010.23
2023-04-29T03:39:23.624Z,98010.39
2023-04-29T03:41:55.833Z,98009.08
2023-04-29T03:44:30.448Z,98004.84
2023-04-29T03:47:02.984Z,98002.06
2023-04-29T03:49:35.594Z,98006.11
2023-04-29T03:52:09.286Z,98006.17
2023-04-29T03:54:41.483Z,98010.27
2023-04-29T03:57:13.713Z,98008.19
2023-04-29T03:59:50.892Z,98001.70
2023-04-29T04:02:29.806Z,98002.56
2023-04-29T04:05:13.188Z,98003.93
2023-04-29T04:07:47.770Z,98002.41
2023-04-29T04:10:40.727Z,98004.95
2023-04-29T04:13:25.096Z,98005.28
2023-04-29T04:15:57.416Z,98004.25
2023-04-29T04:18:29.628Z,98005.28
2023-04-29T04:21:08.549Z,98003.82
2023-04-29T04:23:41.475Z,98004.80
2023-04-29T04:26:15.251Z,98005.67
2023-04-29T04:28:59.463Z,98005.68
2023-04-29T04:31:42.009Z,98001.19
2023-04-29T04:34:14.497Z,98006.46
2023-04-29T04:36:47.026Z,98006.70
2023-04-29T04:39:19.231Z,98008.20
2023-04-29T04:41:54.265Z,98008.85
2023-04-29T04:44:26.831Z,98007.66
2023-04-29T04:47:13.214Z,98007.22
2023-04-29T04:50:06.773Z,98010.27
2023-04-29T04:52:38.971Z,98011.75
2023-04-29T04:55:34.715Z,98014.48
2023-04-29T04:58:09.587Z,98016.61
2023-04-29T05:00:46.942Z,98012.81
2023-04-29T05:03:19.412Z,98014.59
2023-04-29T05:05:57.558Z,98010.22
2023-04-29T05:08:29.905Z,98005.55
2023-04-29T05:11:03.824Z,98009.27
2023-04-29T05:13:37.273Z,98008.27
2023-04-29T05:16:10.221Z,98006.88
2023-04-29T05:18:45.879Z,98009.17
2023-04-29T05:21:18.158Z,98005.51
2023-04-29T05:23:50.734Z,98002.29
2023-04-29T05:26:22.914Z,98005.17
2023-04-29T05:28:56.212Z,98006.55
2023-04-29T05:31:29.382Z,98006.20
2023-04-29T05:34:02.051Z,98004.67
2023-04-29T05:36:34.349Z,98006.02
2023-04-29T05:39:06.947Z,98004.95
2023-04-29T05:41:39.190Z,98008.78
2023-04-29T05:44:22.831Z,98006.95
2023-04-29T05:46:55.106Z,98012.73
2023-04-29T05:49:27.231Z,98013.38
2023-04-29T05:55:05.571Z,98028.63
2023-04-29T05:57:37.792Z,98037.80
2023-04-29T06:00:12.082Z,98041.27
2023-04-29T06:02:57.971Z,98041.17
2023-04-29T06:05:32.049Z,98045.79
2023-04-29T06:08:25.680Z,98045.06
2023-04-29T06:10:59.470Z,98047.27
2023-04-29T06:13:31.409Z,98043.56
2023-04-29T06:16:03.779Z,98040.65
2023-04-29T06:18:39.405Z,98037.15
2023-04-29T06:21:11.561Z,98036.11
2023-04-29T06:23:43.701Z,98028.68
2023-04-29T06:26:21.620Z,98028.48
2023-04-29T06:28:54.311Z,98025.02
2023-04-29T06:31:27.927Z,98024.64
2023-04-29T06:34:04.068Z,98025.63
2023-04-29T06:36:37.103Z,98024.13
2023-04-29T06:39:38.452Z,98029.30
2023-04-29T06:42:24.386Z,98029.97
2023-04-29T06:45:15.228Z,98024.91
2023-04-29T06:48:01.839Z,98026.60
2023-04-29T06:50:54.419Z,98030.70
2023-04-29T06:53:26.856Z,98028.20
2023-04-29T06:56:03.450Z,98029.50
2023-04-29T06:58:35.612Z,98027.02
2023-04-29T07:01:08.886Z,98032.28
2023-04-29T07:03:41.173Z,98031.73
2023-04-29T07:06:13.798Z,98032.76
2023-04-29T07:08:46.155Z,98034.64
2023-04-29T07:11:20.653Z,98033.38
2023-04-29T07:13:53.702Z,98033.90
2023-04-29T07:16:27.333Z,98033.53
2023-04-29T07:18:59.657Z,98035.41
2023-04-29T07:21:35.985Z,98033.13
2023-04-29T07:24:08.819Z,98035.90
2023-04-29T07:26:40.938Z,98034.96
2023-04-29T07:29:16.013Z,98034.98
2023-04-29T07:31:48.285Z,98032.98
2023-04-29T07:34:20.982Z,98034.45
2023-04-29T07:36:53.077Z,98030.17
2023-04-29T07:39:26.919Z,98036.05
2023-04-29T07:42:03.214Z,98037.17
2023-04-29T07:44:38.391Z,98033.38
2023-04-29T07:47:10.651Z,98026.27
2023-04-29T07:49:42.850Z,98024.88
2023-04-29T07:52:20.224Z,98024.16
2023-04-29T07:54:56.345Z,98027.34
2023-04-29T07:57:28.865Z,98025.98
2023-04-29T08:00:01.506Z,98023.82
2023-04-29T08:02:33.929Z,98024.23
2023-04-29T08:05:07.478Z,98023.36
2023-04-29T08:07:40.303Z,98027.04
2023-04-29T08:10:13.255Z,98026.21
2023-04-29T08:12:48.690Z,98027.54
2023-04-29T08:15:21.350Z,98024.23
2023-04-29T08:17:53.551Z,98027.62
2023-04-29T08:20:25.752Z,98025.29
2023-04-29T08:22:59.439Z,98023.33
2023-04-29T08:25:31.725Z,98023.88
2023-04-29T08:28:04.282Z,98024.73
2023-04-29T08:30:38.366Z,98025.31
2023-04-29T08:33:13.122Z,98026.94
2023-04-29T08:35:46.427Z,98022.70
2023-04-29T08:38:18.504Z,98018.21
2023-04-29T08:40:50.894Z,98020.92
2023-04-29T08:43:23.351Z,98023.45
2023-04-29T08:45:56.467Z,98020.68
2023-04-29T08:48:30.534Z,98016.84
2023-04-29T08:51:02.996Z,98017.29
2023-04-29T08:56:49.784Z,98016.45
2023-04-29T08:59:23.029Z,98008.77
2023-04-29T09:01:56.527Z,98007.38
2023-04-29T09:04:39.575Z,98000.98
2023-04-29T09:07:14.616Z,98001.46
2023-04-29T09:09:47.973Z,97999.38
2023-04-29T09:12:23.005Z,97993.98
2023-04-29T09:18:06.046Z,97974.06
2023-04-29T09:20:38.244Z,97966.55
2023-04-29T09:23:10.362Z,97954.34
2023-04-29T09:25:42.501Z,97952.40
2023-04-29T09:28:18.883Z,97967.40
2023-04-29T09:30:51.280Z,97976.71
2023-04-29T09:33:23.375Z,97972.14
2023-04-29T09:35:55.829Z,97979.33
2023-04-29T09:38:28.222Z,97977.77
2023-04-29T09:41:01.902Z,97980.60
2023-04-29T09:43:34.946Z,97978.86
2023-04-29T09:46:07.687Z,97970.55
2023-04-29T09:48:40.569Z,97968.90
2023-04-29T09:51:14.922Z,97959.80
2023-04-29T09:53:48.895Z,97963.16
2023-04-29T09:56:21.637Z,97952.42
2023-04-29T09:58:54.038Z,97955.27
2023-04-29T10:01:29.037Z,97952.30
2023-04-29T10:04:02.412Z,97957.88
2023-04-29T10:06:34.663Z,97955.34
2023-04-29T10:09:11.864Z,97949.42
2023-04-29T10:11:44.058Z,97962.30
2023-04-29T10:14:21.272Z,97961.84
2023-04-29T10:17:03.293Z,97963.81
2023-04-29T10:19:40.636Z,97957.55
2023-04-29T10:22:20.666Z,97958.52
2023-04-29T10:24:53.945Z,97960.33
2023-04-29T10:27:28.619Z,97957.13
2023-04-29T10:30:02.227Z,97958.06
2023-04-29T10:32:49.605Z,97960.31
2023-04-29T10:35:25.771Z,97951.90
2023-04-29T10:38:06.587Z,97945.75
2023-04-29T10:40:45.649Z,97934.88
2023-04-29T10:43:24.213Z,97935.48
2023-04-29T10:46:20.895Z,97930.52
2023-04-29T10:48:57.864Z,97931.37
2023-04-29T10:51:35.554Z,97929.58
2023-04-29T10:54:14.931Z,97924.45
2023-04-29T10:56:51.664Z,97933.48
2023-04-29T10:59:45.241Z,97926.20
2023-04-29T11:02:21.018Z,97923.92
2023-04-29T11:05:14.189Z,97924.13
2023-04-29T11:07:49.005Z,97923.89
2023-04-29T11:10:22.419Z,97924.20
2023-04-29T11:13:27.637Z,97926.94
2023-04-29T11:16:08.134Z,97927.60
2023-04-29T11:19:14.221Z,97932.42
2023-04-29T11:21:48.617Z,97929.89
2023-04-29T11:24:21.521Z,97935.71
2023-04-29T11:27:04.426Z,97936.11
2023-04-29T11:29:37.373Z,97939.56
2023-04-29T11:32:10.862Z,97942.22
2023-04-29T11:34:43.501Z,97942.63
2023-04-29T11:37:20.359Z,97944.52
2023-04-29T11:39:54.223Z,97947.00
2023-04-29T11:42:27.460Z,97946.45
2023-04-29T11:45:02.220Z,97950.05
2023-04-29T11:47:44.959Z,97945.77
2023-04-29T11:50:20.823Z,97945.94
2023-04-29T11:52:53.857Z,97946.07
2023-04-29T11:55:26.283Z,97948.36
2023-04-29T11:58:00.394Z,97947.84
2023-04-29T12:00:39.407Z,97946.04
2023-04-29T12:03:17.136Z,97947.80
2023-04-29T12:05:53.113Z,97949.30
2023-04-29T12:08:29.481Z,97950.88
2023-04-29T12:11:05.213Z,97955.00
2023-04-29T12:13:37.937Z,97960.41
2023-04-29T12:16:11.408Z,97965.49
2023-04-29T12:18:43.717Z,97976.23
2023-04-29T12:21:22.914Z,97981.39
2023-04-29T12:23:55.789Z,97981.95
2023-04-29T12:26:32.417Z,97977.70
2023-04-29T12:29:05.121Z,97979.26
2023-04-29T12:31:38.116Z,97985.55
2023-04-29T12:34:10.529Z,97979.91
2023-04-29T12:36:44.902Z,97981.67
2023-04-29T12:39:17.335Z,97978.13
2023-04-29T12:41:49.609Z,97971.73
2023-04-29T12:44:24.910Z,97969.32
2023-04-29T12:46:58.568Z,97968.44
2023-04-29T12:49:35.319Z,97964.06
2023-04-29T12:52:11.096Z,97961.83
2023-04-29T12:54:50.814Z,97952.39
2023-04-29T12:57:25.756Z,97955.95
2023-04-29T12:59:58.056Z,97949.45
2023-04-29T13:02:30.923Z,97941.31
2023-04-29T13:05:09.488Z,97941.34
2023-04-29T13:07:44.942Z,97937.45
2023-04-29T13:10:20.104Z,97933.23
2023-04-29T13:12:52.388Z,97929.58
2023-04-29T13:15:27.915Z,97930.29
2023-04-29T13:18:00.310Z,97929.30
2023-04-29T13:20:40.913Z,97927.55
2023-04-29T13:23:14.782Z,97919.65
2023-04-29T13:25:46.992Z,97920.30
2023-04-29T13:28:19.226Z,97927.05
2023-04-29T13:30:52.371Z,97925.06
2023-04-29T13:33:24.647Z,97924.67
2023-04-29T13:35:57.098Z,97930.82
2023-04-29T13:38:29.335Z,97932.52
2023-04-29T13:41:01.523Z,97930.69
2023-04-29T13:43:38.419Z,97938.88
2023-04-29T13:46:13.297Z,97933.81
2023-04-29T13:54:48.136Z,97934.82
2023-04-29T14:04:39.726Z,97944.92
2023-04-29T14:07:12.129Z,97938.99
2023-04-29T14:09:44.714Z,97938.95
2023-04-29T14:12:18.631Z,97933.48
2023-04-29T14:14:58.292Z,97928.77
2023-04-29T14:17:34.681Z,97925.61
2023-04-29T14:20:13.402Z,97923.80
2023-04-29T14:22:50.655Z,97912.00
2023-04-29T14:25:24.827Z,97908.77
2023-04-29T14:28:01.908Z,97914.04
2023-04-29T14:30:41.638Z,97907.42
2023-04-29T14:33:15.361Z,97906.63
2023-04-29T14:35:47.686Z,97909.27
2023-04-29T14:38:20.739Z,97911.54
2023-04-29T14:43:58.612Z,97903.23
2023-04-29T14:46:33.769Z,97900.46
2023-04-29T14:49:09.593Z,97892.18
2023-04-29T14:51:44.009Z,97893.83
2023-04-29T14:54:16.313Z,97898.30
2023-04-29T14:56:48.540Z,97889.66
2023-04-29T14:59:20.714Z,97884.83
2023-04-29T15:01:58.580Z,97882.06
2023-04-29T15:04:31.147Z,97887.23
2023-04-29T15:07:04.545Z,97887.14
2023-04-29T15:09:37.250Z,97892.33
2023-04-29T15:12:15.383Z,97891.60
2023-04-29T15:14:47.605Z,97892.75
2023-04-29T15:17:26.238Z,97896.45
2023-04-29T15:19:58.929Z,97898.98
2023-04-29T15:22:31.218Z,97904.74
2023-04-29T15:25:03.497Z,97906.45
2023-04-29T15:27:46.262Z,97902.80
2023-04-29T15:30:22.513Z,97903.64
2023-04-29T15:33:04.989Z,97905.46
2023-04-29T15:35:38.200Z,97904.50
2023-04-29T15:38:10.436Z,97901.90
2023-04-29T15:40:42.819Z,97907.27
2023-04-29T15:43:18.037Z,97902.04
2023-04-29T15:45:54.321Z,97908.61
2023-04-29T15:48:27.588Z,97907.02
2023-04-29T15:50:59.913Z,97907.98
2023-04-29T15:53:38.579Z,97902.21
2023-04-29T15:56:11.158Z,97908.98
2023-04-29T15:58:46.399Z,97904.77
2023-04-29T16:01:21.725Z,97908.83
2023-04-29T16:03:57.713Z,97908.17
2023-04-29T16:06:31.107Z,97907.66
2023-04-29T16:09:13.013Z,97916.00
2023-04-29T16:11:46.596Z,97917.80
2023-04-29T16:14:19.719Z,97924.42
2023-04-29T16:16:53.378Z,97926.34
2023-04-29T16:19:31.228Z,97925.83
2023-04-29T16:22:07.745Z,97925.84
2023-04-29T16:24:40.006Z,97927.33
2023-04-29T16:27:13.996Z,97930.44
2023-04-29T16:29:46.461Z,97933.44
2023-04-29T16:32:19.369Z,97940.13
2023-04-29T16:34:52.009Z,97937.06
2023-04-29T16:37:24.988Z,97935.87
2023-04-29T16:39:57.292Z,97941.02
2023-04-29T16:42:32.102Z,97944.08
2023-04-29T16:45:04.468Z,97949.66
2023-04-29T16:47:36.909Z,97947.94
2023-04-29T16:50:11.481Z,97947.45
2023-04-29T16:52:43.661Z,97949.80
2023-04-29T16:55:16.199Z,97949.00
2023-04-29T16:57:49.362Z,97956.05
2023-04-29T17:00:25.350Z,97962.37
2023-04-29T17:02:58.610Z,97971.41
2023-04-29T17:05:34.652Z,97978.27
2023-04-29T17:08:07.147Z,97986.66
2023-04-29T17:10:39.285Z,97995.05
2023-04-29T17:13:11.956Z,97994.89
2023-04-29T17:15:45.973Z,98002.93
2023-04-29T17:18:19.605Z,98013.98
2023-04-29T17:20:54.677Z,98016.27
2023-04-29T17:23:26.991Z,98025.42
2023-04-29T17:25:59.389Z,98024.13
2023-04-29T17:28:31.720Z,98019.29
2023-04-29T17:34:19.827Z,98022.77
2023-04-29T17:36:52.654Z,98022.93
2023-04-29T17:39:24.910Z,98021.38
2023-04-29T17:41:58.478Z,98022.71
2023-04-29T17:44:30.880Z,98021.55
2023-04-29T17:47:03.736Z,98017.88
2023-04-29T17:49:36.410Z,98020.29
2023-04-29T17:52:09.180Z,98020.35
2023-04-29T17:54:45.493Z,98020.02
2023-04-29T17:57:18.649Z,98024.00
2023-04-29T17:59:50.971Z,98020.27
2023-04-29T18:02:27.631Z,98025.63
2023-04-29T18:05:00.019Z,98025.73
2023-04-29T18:07:32.217Z,98027.25
2023-04-29T18:10:05.984Z,98026.24
2023-04-29T18:12:38.472Z,98031.98
2023-04-29T18:15:14.327Z,98032.44
2023-04-29T18:17:47.145Z,98039.16
2023-04-29T18:20:19.388Z,98043.42
2023-04-29T18:22:52.033Z,98046.08
2023-04-29T18:25:24.868Z,98050.23
2023-04-29T18:28:07.434Z,98054.82
2023-04-29T18:30:48.739Z,98055.78
2023-04-29T18:33:21.464Z,98056.95
2023-04-29T18:35:54.405Z,98058.73
2023-04-29T18:38:28.466Z,98065.11
2023-04-29T18:41:00.758Z,98064.30
2023-04-29T18:43:32.778Z,98063.19
2023-04-29T18:46:05.493Z,98065.35
2023-04-29T18:48:39.072Z,98064.27
2023-04-29T18:51:13.457Z,98068.41
2023-04-29T18:53:45.700Z,98072.83
2023-04-29T18:56:22.103Z,98073.05
2023-04-29T18:58:54.341Z,98069.77
2023-04-29T19:01:26.876Z,98073.23
2023-04-29T19:03:59.041Z,98072.88
2023-04-29T19:06:32.511Z,98078.55
2023-04-29T19:09:05.609Z,98078.86
2023-04-29T19:11:38.128Z,98084.14
2023-04-29T19:14:10.328Z,98087.06
2023-04-29T19:16:45.383Z,98091.30
2023-04-29T19:19:19.051Z,98092.11
2023-04-29T19:21:55.579Z,98090.66
2023-04-29T19:24:27.801Z,98088.59
2023-04-29T19:27:00.005Z,98084.91
2023-04-29T19:29:34.558Z,98091.27
2023-04-29T19:32:06.952Z,98091.14
2023-04-29T19:34:39.228Z,98089.84
2023-04-29T19:37:11.450Z,98094.67
2023-04-29T19:39:46.488Z,98090.82
2023-04-29T19:42:20.909Z,98092.38
2023-04-29T19:44:52.958Z,98095.66
2023-04-29T19:47:25.707Z,98098.86
2023-04-29T19:49:57.898Z,98101.66
2023-04-29T19:52:30.204Z,98104.15
2023-04-29T19:55:02.341Z,98109.05
2023-04-29T19:57:37.069Z,98108.50
2023-04-29T20:00:14.541Z,98111.61
2023-04-29T20:02:50.819Z,98114.27
2023-04-29T20:05:23.181Z,98110.54
2023-04-29T20:07:55.396Z,98114.14
2023-04-29T20:10:29.897Z,98114.20
2023-04-29T20:13:03.068Z,98112.05
2023-04-29T20:15:35.274Z,98108.25
2023-04-29T20:18:07.497Z,98110.73
2023-04-29T20:20:39.697Z,98112.00
2023-04-29T20:23:17.614Z,98111.92
2023-04-29T20:25:49.822Z,98111.39
2023-04-29T20:28:21.998Z,98108.31
2023-04-29T20:30:54.139Z,98112.25
2023-04-29T20:33:29.594Z,98107.45
2023-04-29T20:36:06.694Z,98104.84
2023-04-29T20:38:39.709Z,98105.53
2023-04-29T20:41:11.794Z,98104.73
2023-04-29T20:43:46.246Z,98105.36
2023-04-29T20:46:18.450Z,98110.64
2023-04-29T20:48:50.753Z,98111.44
2023-04-29T20:51:26.739Z,98113.73
2023-04-29T20:53:59.193Z,98116.54
2023-04-29T20:56:31.429Z,98118.56
2023-04-29T20:59:04.483Z,98119.64
2023-04-29T21:01:37.907Z,98120.11
2023-04-29T21:04:10.679Z,98119.53
2023-04-29T21:06:43.032Z,98122.20
2023-04-29T21:09:15.306Z,98123.80
2023-04-29T21:11:47.465Z,98120.81
2023-04-29T21:14:20.070Z,98120.98
2023-04-29T21:16:52.166Z,98125.66
2023-04-29T21:19:24.312Z,98124.73
2023-04-29T21:21:56.603Z,98131.52
2023-04-29T21:24:28.770Z,98131.65
2023-04-29T21:27:03.889Z,98129.20
2023-04-29T21:29:40.955Z,98130.23
2023-04-29T21:32:21.590Z,98129.13
2023-04-29T21:34:54.132Z,98133.12
2023-04-29T21:37:26.240Z,98136.15
2023-04-29T21:40:03.025Z,98138.05
2023-04-29T21:42:35.608Z,98137.79
2023-04-29T21:45:09.666Z,98140.36
2023-04-29T21:47:42.109Z,98139.69
2023-04-29T21:50:20.546Z,98140.83
2023-04-29T21:52:52.663Z,98141.45
2023-04-29T21:55:25.360Z,98144.27
2023-04-29T21:57:57.661Z,98144.46
2023-04-29T22:00:36.297Z,98145.64
2023-04-29T22:03:11.493Z,98146.38
2023-04-29T22:05:44.155Z,98152.48
2023-04-29T22:08:16.326Z,98146.05
2023-04-29T22:10:49.509Z,98145.26
2023-04-29T22:13:21.728Z,98147.55
2023-04-29T22:15:53.908Z,98145.34
2023-04-29T22:18:26.294Z,98145.30
2023-04-29T22:20:58.582Z,98148.66
2023-04-29T22:23:30.866Z,98149.98
2023-04-29T22:26:03.544Z,98147.16
2023-04-29T22:28:35.985Z,98147.14
2023-04-29T22:31:08.367Z,98143.59
2023-04-29T22:33:40.568Z,98150.43
2023-04-29T22:36:12.789Z,98149.90
2023-04-29T22:38:44.927Z,98148.89
2023-04-29T22:41:19.036Z,98148.95
2023-04-29T22:43:57.268Z,98152.48
2023-04-29T22:49:39.055Z,98155.89
2023-04-29T22:52:13.898Z,98159.26
2023-04-29T22:54:46.334Z,98156.45
2023-04-29T22:57:19.256Z,98159.68
2023-04-29T22:59:54.820Z,98160.07
2023-04-29T23:02:29.520Z,98159.09
2023-04-29T23:05:03.731Z,98162.63
2023-04-29T23:07:36.292Z,98160.02
2023-04-29T23:10:09.919Z,98160.68
2023-04-29T23:12:42.190Z,98163.27
2023-04-29T23:15:15.693Z,98161.26
2023-04-29T23:17:47.810Z,98164.86
2023-04-29T23:20:22.792Z,98167.98
2023-04-29T23:22:54.856Z,98168.81
2023-04-29T23:25:27.258Z,98170.18
2023-04-29T23:28:00.009Z,98169.08
2023-04-29T23:30:32.852Z,98171.31
2023-04-29T23:33:05.118Z,98178.38
2023-04-29T23:35:37.424Z,98181.76
2023-04-29T23:38:09.524Z,98185.98
2023-04-29T23:40:41.680Z,98182.92
2023-04-29T23:43:15.024Z,98184.86
2023-04-29T23:45:48.345Z,98184.27
2023-04-29T23:48:20.469Z,98188.25
2023-04-29T23:50:54.547Z,98183.81
2023-04-29T23:53:26.778Z,98186.94
2023-04-29T23:55:59.105Z,98190.60
2023-04-29T23:58:31.267Z,98185.63
